createdAt,value
2023-03-11T00:00:16.417Z,100329.41
2023-03-11T00:02:44.202Z,100346.00
2023-03-11T00:05:14.022Z,100351.22
2023-03-11T00:07:41.068Z,100349.47
2023-03-11T00:10:08.327Z,100350.94
2023-03-11T00:12:35.164Z,100363.00
2023-03-11T00:15:02.216Z,100367.22
2023-03-11T00:17:29.226Z,100373.94
2023-03-11T00:19:56.284Z,100361.34
2023-03-11T00:22:24.175Z,100350.81
2023-03-11T00:24:51.162Z,100374.63
2023-03-11T00:27:18.015Z,100388.19
2023-03-11T00:29:45.058Z,100400.81
2023-03-11T00:32:12.293Z,100399.53
2023-03-11T00:34:39.341Z,100393.56
2023-03-11T00:37:06.265Z,100410.00
2023-03-11T00:39:33.971Z,100405.94
2023-03-11T00:42:00.981Z,100427.56
2023-03-11T00:44:27.913Z,100430.72
2023-03-11T00:46:54.759Z,100429.84
2023-03-11T00:49:21.715Z,100426.84
2023-03-11T00:51:48.779Z,100423.66
2023-03-11T00:54:15.795Z,100416.31
2023-03-11T00:56:42.932Z,100416.44
2023-03-11T00:59:11.169Z,100400.31
2023-03-11T01:01:38.066Z,100383.72
2023-03-11T01:04:04.992Z,100381.22
2023-03-11T01:06:43.172Z,100383.22
2023-03-11T01:09:12.309Z,100347.81
2023-03-11T01:11:39.365Z,100345.44
2023-03-11T01:14:08.367Z,100340.50
2023-03-11T01:16:35.241Z,100336.91
2023-03-11T01:19:02.271Z,100329.31
2023-03-11T01:21:29.159Z,100324.09
2023-03-11T01:23:56.058Z,100309.25
2023-03-11T01:26:23.023Z,100300.47
2023-03-11T01:28:49.945Z,100302.94
2023-03-11T01:31:17.548Z,100292.22
2023-03-11T01:33:44.685Z,100283.72
2023-03-11T01:36:12.269Z,100268.81
2023-03-11T01:38:39.289Z,100274.53
2023-03-11T01:41:06.623Z,100271.19
2023-03-11T01:43:46.096Z,100266.22
2023-03-11T01:46:50.352Z,100256.56
2023-03-11T01:49:18.106Z,100254.75
2023-03-11T01:51:47.109Z,100242.75
2023-03-11T01:54:19.389Z,100245.47
2023-03-11T01:56:46.803Z,100250.91
2023-03-11T01:59:16.594Z,100225.28
2023-03-11T02:01:46.910Z,100241.53
2023-03-11T02:04:14.244Z,100234.47
2023-03-11T02:06:41.170Z,100228.38
2023-03-11T02:09:08.746Z,100240.69
2023-03-11T02:11:35.700Z,100236.22
2023-03-11T02:14:04.881Z,100251.81
2023-03-11T02:16:32.302Z,100254.25
2023-03-11T02:19:01.101Z,100251.75
2023-03-11T02:21:32.990Z,100252.78
2023-03-11T02:24:02.330Z,100267.88
2023-03-11T02:26:38.308Z,100269.50
2023-03-11T02:29:07.136Z,100271.75
2023-03-11T02:31:35.143Z,100282.56
2023-03-11T02:34:05.125Z,100289.66
2023-03-11T02:36:32.236Z,100298.22
2023-03-11T02:38:59.361Z,100310.75
2023-03-11T02:41:26.806Z,100318.97
2023-03-11T02:43:54.008Z,100315.63
2023-03-11T02:46:23.056Z,100310.69
2023-03-11T02:48:50.105Z,100312.22
2023-03-11T02:51:17.658Z,100313.28
2023-03-11T02:53:46.958Z,100328.34
2023-03-11T02:56:14.941Z,100317.41
2023-03-11T02:58:42.884Z,100321.53
2023-03-11T03:01:10.737Z,100332.97
2023-03-11T03:03:39.022Z,100336.00
2023-03-11T03:06:06.880Z,100339.66
2023-03-11T03:08:33.805Z,100351.47
2023-03-11T03:11:01.427Z,100334.78
2023-03-11T03:13:29.357Z,100333.38
2023-03-11T03:15:56.918Z,100332.78
2023-03-11T03:18:23.872Z,100319.53
2023-03-11T03:20:53.060Z,100316.91
2023-03-11T03:23:20.593Z,100316.91
2023-03-11T03:25:47.477Z,100318.03
2023-03-11T03:28:15.139Z,100299.56
2023-03-11T03:30:45.274Z,100304.44
2023-03-11T03:33:14.013Z,100285.22
2023-03-11T03:35:42.965Z,100277.22
2023-03-11T03:38:16.430Z,100276.25
2023-03-11T03:40:47.923Z,100280.50
2023-03-11T03:43:17.753Z,100291.44
2023-03-11T03:45:46.227Z,100282.19
2023-03-11T03:48:13.267Z,100276.50
2023-03-11T03:50:44.209Z,100275.03
2023-03-11T03:53:14.779Z,100271.47
2023-03-11T03:55:42.682Z,100260.59
2023-03-11T03:58:10.519Z,100270.22
2023-03-11T04:00:39.535Z,100273.19
2023-03-11T04:03:07.167Z,100258.72
2023-03-11T04:05:42.110Z,100253.25
2023-03-11T04:08:09.227Z,100268.66
2023-03-11T04:10:36.141Z,100266.88
2023-03-11T04:13:03.805Z,100247.25
2023-03-11T04:15:31.264Z,100258.19
2023-03-11T04:17:59.196Z,100262.72
2023-03-11T04:20:26.776Z,100265.00
2023-03-11T04:22:54.168Z,100262.25
2023-03-11T04:25:23.859Z,100270.94
2023-03-11T04:27:52.448Z,100288.28
2023-03-11T04:30:20.495Z,100292.47
2023-03-11T04:32:49.795Z,100293.00
2023-03-11T04:35:17.344Z,100287.28
2023-03-11T04:37:45.794Z,100281.34
2023-03-11T04:40:13.101Z,100287.63
2023-03-11T04:42:40.499Z,100298.41
2023-03-11T04:45:08.300Z,100305.91
2023-03-11T04:47:35.691Z,100319.28
2023-03-11T04:50:05.960Z,100316.72
2023-03-11T04:52:33.038Z,100304.97
2023-03-11T04:55:00.125Z,100312.56
2023-03-11T04:57:27.297Z,100307.13
2023-03-11T04:59:56.156Z,100278.06
2023-03-11T05:02:23.161Z,100280.31
2023-03-11T05:04:55.895Z,100283.72
2023-03-11T05:07:23.032Z,100300.13
2023-03-11T05:09:50.796Z,100292.25
2023-03-11T05:12:17.798Z,100286.13
2023-03-11T05:14:49.340Z,100277.91
2023-03-11T05:17:18.881Z,100278.47
2023-03-11T05:19:47.615Z,100274.41
2023-03-11T05:22:22.618Z,100272.03
2023-03-11T05:24:50.045Z,100276.53
2023-03-11T05:27:18.386Z,100288.16
2023-03-11T05:29:48.420Z,100283.19
2023-03-11T05:32:17.182Z,100289.81
2023-03-11T05:34:46.453Z,100276.13
2023-03-11T05:37:15.899Z,100268.72
2023-03-11T05:39:43.597Z,100250.25
2023-03-11T05:42:12.249Z,100262.69
2023-03-11T05:44:40.099Z,100260.41
2023-03-11T05:47:07.164Z,100277.28
2023-03-11T05:49:37.132Z,100265.69
2023-03-11T05:52:04.665Z,100255.16
2023-03-11T05:54:32.609Z,100233.16
2023-03-11T05:56:59.696Z,100239.75
2023-03-11T05:59:26.822Z,100258.16
2023-03-11T06:01:59.587Z,100258.47
2023-03-11T06:04:26.616Z,100239.25
2023-03-11T06:06:54.169Z,100257.66
2023-03-11T06:09:23.744Z,100249.03
2023-03-11T06:11:52.534Z,100247.00
2023-03-11T06:14:22.820Z,100250.06
2023-03-11T06:16:51.439Z,100253.41
2023-03-11T06:19:21.751Z,100224.50
2023-03-11T06:21:58.854Z,100239.28
2023-03-11T06:24:26.043Z,100254.69
2023-03-11T06:26:53.390Z,100265.34
2023-03-11T06:29:24.674Z,100271.09
2023-03-11T06:31:52.118Z,100254.09
2023-03-11T06:34:19.121Z,100268.13
2023-03-11T06:36:46.406Z,100236.72
2023-03-11T06:39:15.521Z,100266.44
2023-03-11T06:41:45.702Z,100270.50
2023-03-11T06:44:13.607Z,100297.88
2023-03-11T06:46:41.925Z,100280.06
2023-03-11T06:49:09.033Z,100293.47
2023-03-11T06:51:37.514Z,100290.19
2023-03-11T06:54:05.086Z,100263.72
2023-03-11T06:56:32.674Z,100268.75
2023-03-11T06:59:04.598Z,100278.56
2023-03-11T07:01:33.895Z,100281.88
2023-03-11T07:04:02.958Z,100267.78
2023-03-11T07:06:30.653Z,100300.38
2023-03-11T07:09:12.133Z,100300.19
2023-03-11T07:11:42.754Z,100294.00
2023-03-11T07:14:14.344Z,100280.81
2023-03-11T07:16:45.464Z,100269.03
2023-03-11T07:19:23.205Z,100272.00
2023-03-11T07:21:50.312Z,100279.13
2023-03-11T07:24:17.803Z,100291.72
2023-03-11T07:26:44.854Z,100273.09
2023-03-11T07:29:11.730Z,100265.84
2023-03-11T07:31:38.844Z,100281.38
2023-03-11T07:34:11.213Z,100299.13
2023-03-11T07:36:40.429Z,100272.03
2023-03-11T07:39:07.394Z,100257.16
2023-03-11T07:41:35.145Z,100237.25
2023-03-11T07:44:02.560Z,100242.47
2023-03-11T07:46:30.177Z,100251.34
2023-03-11T07:48:57.188Z,100237.88
2023-03-11T07:51:25.870Z,100232.81
2023-03-11T07:53:53.687Z,100226.59
2023-03-11T07:56:21.312Z,100223.81
2023-03-11T07:58:48.299Z,100212.78
2023-03-11T08:01:17.013Z,100234.91
2023-03-11T08:03:47.925Z,100216.97
2023-03-11T08:06:19.579Z,100220.56
2023-03-11T08:08:46.669Z,100219.16
2023-03-11T08:11:14.392Z,100206.34
2023-03-11T08:13:41.873Z,100202.44
2023-03-11T08:16:09.630Z,100208.25
2023-03-11T08:18:36.693Z,100192.09
2023-03-11T08:21:07.476Z,100202.75
2023-03-11T08:23:34.534Z,100193.44
2023-03-11T08:26:08.444Z,100170.28
2023-03-11T08:28:36.384Z,100199.53
2023-03-11T08:31:03.889Z,100191.16
2023-03-11T08:33:30.818Z,100171.19
2023-03-11T08:35:58.088Z,100155.31
2023-03-11T08:38:25.232Z,100127.91
2023-03-11T08:40:52.128Z,100116.88
2023-03-11T08:43:19.111Z,100118.13
2023-03-11T08:45:46.122Z,100125.78
2023-03-11T08:48:13.094Z,100143.91
2023-03-11T08:50:53.389Z,100179.44
2023-03-11T08:53:22.283Z,100166.03
2023-03-11T08:55:49.899Z,100163.38
2023-03-11T08:58:16.841Z,100177.44
2023-03-11T09:00:44.107Z,100230.88
2023-03-11T09:03:11.300Z,100226.41
2023-03-11T09:05:38.198Z,100228.91
2023-03-11T09:08:06.733Z,100239.34
2023-03-11T09:10:33.589Z,100241.06
2023-03-11T09:13:00.576Z,100240.72
2023-03-11T09:15:27.477Z,100240.88
2023-03-11T09:17:54.572Z,100225.47
2023-03-11T09:20:21.697Z,100209.69
2023-03-11T09:22:48.796Z,100215.19
2023-03-11T09:25:15.834Z,100215.13
2023-03-11T09:27:43.272Z,100216.34
2023-03-11T09:30:10.811Z,100211.13
2023-03-11T09:32:37.964Z,100213.41
2023-03-11T09:35:05.244Z,100219.13
2023-03-11T09:39:22.347Z,100210.88
2023-03-11T09:42:11.080Z,100211.41
2023-03-11T09:44:42.587Z,100204.16
2023-03-11T09:47:21.693Z,100193.09
2023-03-11T09:50:07.408Z,100185.44
2023-03-11T09:52:46.269Z,100191.72
2023-03-11T09:55:25.796Z,100195.59
2023-03-11T09:57:56.244Z,100191.28
2023-03-11T10:00:25.305Z,100181.13
2023-03-11T10:02:52.791Z,100188.72
2023-03-11T10:05:27.581Z,100173.03
2023-03-11T10:08:13.240Z,100169.22
2023-03-11T10:10:50.255Z,100165.75
2023-03-11T10:13:32.518Z,100168.94
2023-03-11T10:16:19.428Z,100155.53
2023-03-11T10:18:56.960Z,100159.09
2023-03-11T10:21:26.992Z,100170.63
2023-03-11T10:24:02.158Z,100172.63
2023-03-11T10:26:45.800Z,100190.47
2023-03-11T10:29:19.180Z,100190.53
2023-03-11T10:31:49.403Z,100180.69
2023-03-11T10:34:40.044Z,100169.59
2023-03-11T10:37:46.560Z,100176.22
2023-03-11T10:40:32.316Z,100188.50
2023-03-11T10:43:04.594Z,100137.94
2023-03-11T10:45:41.636Z,100136.38
2023-03-11T10:48:14.543Z,100179.22
2023-03-11T10:51:14.915Z,100170.19
2023-03-11T10:54:03.666Z,100145.25
2023-03-11T10:56:37.140Z,100140.91
2023-03-11T10:59:06.865Z,100149.59
2023-03-11T11:01:34.583Z,100143.22
2023-03-11T11:04:02.548Z,100138.78
2023-03-11T11:06:37.489Z,100141.97
2023-03-11T11:09:22.349Z,100124.09
2023-03-11T11:12:16.619Z,100124.47
2023-03-11T11:14:52.719Z,100122.53
2023-03-11T11:17:31.287Z,100109.75
2023-03-11T11:19:59.738Z,100116.88
2023-03-11T11:22:28.577Z,100100.25
2023-03-11T11:24:58.260Z,100114.94
2023-03-11T11:27:29.396Z,100110.56
2023-03-11T11:30:12.507Z,100098.59
2023-03-11T11:32:39.631Z,100101.19
2023-03-11T11:35:15.244Z,100108.69
2023-03-11T11:37:46.625Z,100099.50
2023-03-11T11:40:17.303Z,100112.56
2023-03-11T11:42:52.586Z,100106.59
2023-03-11T11:45:33.394Z,100117.03
2023-03-11T11:48:08.797Z,100113.94
2023-03-11T11:50:42.151Z,100093.81
2023-03-11T11:53:20.940Z,100091.13
2023-03-11T11:55:52.710Z,100082.47
2023-03-11T11:58:21.555Z,100088.38
2023-03-11T12:01:07.117Z,100078.47
2023-03-11T12:04:06.898Z,100075.69
2023-03-11T12:06:50.835Z,100066.72
2023-03-11T12:09:39.507Z,100056.22
2023-03-11T12:12:21.814Z,100058.97
2023-03-11T12:15:21.017Z,100071.16
2023-03-11T12:17:52.733Z,100068.13
2023-03-11T12:20:54.618Z,100061.81
2023-03-11T12:23:46.150Z,100054.44
2023-03-11T12:26:22.240Z,100061.53
2023-03-11T12:29:24.645Z,100047.41
2023-03-11T12:31:53.812Z,100057.59
2023-03-11T12:34:24.939Z,100056.19
2023-03-11T12:36:53.239Z,100054.97
2023-03-11T12:39:32.932Z,100057.28
2023-03-11T12:42:38.570Z,100054.50
2023-03-11T12:45:43.263Z,100045.44
2023-03-11T12:48:28.773Z,100036.97
2023-03-11T12:50:59.737Z,100040.88
2023-03-11T12:53:45.419Z,100033.53
2023-03-11T12:56:25.303Z,100026.16
2023-03-11T12:59:04.419Z,100024.09
2023-03-11T13:01:56.820Z,100022.19
2023-03-11T13:04:27.518Z,100017.50
2023-03-11T13:07:05.506Z,100012.22
2023-03-11T13:09:33.003Z,99993.94
2023-03-11T13:12:00.305Z,99988.25
2023-03-11T13:14:32.915Z,99994.81
2023-03-11T13:17:26.116Z,99977.06
2023-03-11T13:19:55.736Z,99983.50
2023-03-11T13:22:43.636Z,99975.44
2023-03-11T13:25:29.901Z,99985.78
2023-03-11T13:28:27.835Z,99981.13
2023-03-11T13:31:16.245Z,99977.09
2023-03-11T13:33:58.211Z,99971.72
2023-03-11T13:37:00.395Z,99994.78
2023-03-11T13:39:39.447Z,99996.09
2023-03-11T13:42:20.294Z,99987.78
2023-03-11T13:44:48.096Z,99999.28
2023-03-11T13:47:17.806Z,99989.75
2023-03-11T13:50:02.907Z,99991.00
2023-03-11T13:52:37.777Z,99996.59
2023-03-11T13:55:15.839Z,100007.75
2023-03-11T13:57:53.543Z,100020.41
2023-03-11T14:00:28.701Z,100004.44
2023-03-11T14:02:59.346Z,100012.75
2023-03-11T14:05:31.081Z,100019.44
2023-03-11T14:08:19.466Z,100035.28
2023-03-11T14:11:01.333Z,100022.19
2023-03-11T14:13:38.384Z,100000.66
2023-03-11T14:16:16.011Z,100007.38
2023-03-11T14:18:46.689Z,99990.69
2023-03-11T14:21:20.061Z,100002.19
2023-03-11T14:23:50.186Z,100001.38
2023-03-11T14:26:23.213Z,99990.69
2023-03-11T14:28:51.700Z,100003.84
2023-03-11T14:31:34.737Z,100002.28
2023-03-11T14:34:07.750Z,99989.94
2023-03-11T14:36:54.448Z,99993.91
2023-03-11T14:39:28.218Z,99990.31
2023-03-11T14:42:19.083Z,99983.59
2023-03-11T14:45:18.157Z,99970.19
2023-03-11T14:48:16.536Z,99981.31
2023-03-11T14:50:50.055Z,99978.91
2023-03-11T14:53:26.279Z,99991.56
2023-03-11T14:55:59.808Z,99981.31
2023-03-11T14:58:49.166Z,99970.69
2023-03-11T15:01:26.484Z,99956.09
2023-03-11T15:03:58.763Z,99956.53
2023-03-11T15:06:30.872Z,99956.13
2023-03-11T15:09:07.683Z,99932.41
2023-03-11T15:12:01.992Z,99955.81
2023-03-11T15:14:32.766Z,99954.28
2023-03-11T15:17:42.748Z,99948.41
2023-03-11T15:20:31.435Z,99951.97
2023-03-11T15:23:04.490Z,99949.22
2023-03-11T15:25:33.465Z,99960.72
2023-03-11T15:28:29.266Z,99963.91
2023-03-11T15:31:15.210Z,99948.09
2023-03-11T15:33:43.579Z,99971.44
2023-03-11T15:36:42.453Z,99957.19
2023-03-11T15:39:17.818Z,99954.00
2023-03-11T15:41:48.213Z,99975.78
2023-03-11T15:44:28.171Z,99965.09
2023-03-11T15:46:55.355Z,99965.09
2023-03-11T15:49:22.691Z,99973.00
2023-03-11T15:51:49.816Z,99982.50
2023-03-11T15:54:17.014Z,99972.59
2023-03-11T15:56:45.437Z,99983.28
2023-03-11T15:59:17.312Z,99994.34
2023-03-11T16:01:46.488Z,99999.50
2023-03-11T16:04:16.204Z,99994.34
2023-03-11T16:06:44.373Z,99992.38
2023-03-11T16:09:12.389Z,99997.91
2023-03-11T16:11:40.981Z,100000.66
2023-03-11T16:14:16.521Z,100011.34
2023-03-11T16:16:44.831Z,100016.06
2023-03-11T16:19:12.322Z,99992.31
2023-03-11T16:21:49.655Z,99988.72
2023-03-11T16:24:23.612Z,99986.31
2023-03-11T16:26:52.921Z,99985.53
2023-03-11T16:29:20.704Z,99987.50
2023-03-11T16:31:49.419Z,99985.09
2023-03-11T16:34:16.838Z,99984.69
2023-03-11T16:36:44.116Z,99984.28
2023-03-11T16:39:11.980Z,99990.59
2023-03-11T16:41:44.535Z,99984.63
2023-03-11T16:44:11.980Z,99972.75
2023-03-11T16:46:39.162Z,99976.28
2023-03-11T16:49:06.585Z,99979.41
2023-03-11T16:51:34.150Z,99980.56
2023-03-11T16:54:01.503Z,99974.25
2023-03-11T16:56:28.674Z,99991.19
2023-03-11T16:58:55.816Z,99981.25
2023-03-11T17:01:23.094Z,99989.88
2023-03-11T17:03:51.097Z,99978.03
2023-03-11T17:06:19.753Z,99988.31
2023-03-11T17:08:49.703Z,99986.34
2023-03-11T17:11:18.154Z,99977.63
2023-03-11T17:13:45.664Z,99977.97
2023-03-11T17:16:13.718Z,99987.44
2023-03-11T17:18:41.985Z,99982.66
2023-03-11T17:21:12.084Z,99976.34
2023-03-11T17:23:39.866Z,99960.13
2023-03-11T17:26:12.960Z,99970.41
2023-03-11T17:28:40.671Z,99953.44
2023-03-11T17:31:15.950Z,99952.25
2023-03-11T17:33:44.296Z,99957.41
2023-03-11T17:36:16.274Z,99951.06
2023-03-11T17:38:45.542Z,99913.19
2023-03-11T17:41:17.587Z,99924.25
2023-03-11T17:43:46.215Z,99945.94
2023-03-11T17:46:16.046Z,99909.22
2023-03-11T17:48:45.352Z,99954.94
2023-03-11T17:51:15.840Z,99969.91
2023-03-11T17:53:45.980Z,99945.41
2023-03-11T17:56:15.420Z,99956.13
2023-03-11T17:58:42.772Z,99984.50
2023-03-11T18:01:16.219Z,99970.66
2023-03-11T18:03:43.629Z,100004.97
2023-03-11T18:06:11.841Z,100007.63
2023-03-11T18:08:39.217Z,100018.09
2023-03-11T18:11:09.991Z,100028.31
2023-03-11T18:13:38.844Z,100032.97
2023-03-11T18:16:09.584Z,100029.75
2023-03-11T18:18:37.867Z,100069.50
2023-03-11T18:21:11.479Z,100052.91
2023-03-11T18:23:39.116Z,100070.13
2023-03-11T18:26:08.539Z,100071.25
2023-03-11T18:28:36.151Z,100061.72
2023-03-11T18:31:14.674Z,100065.31
2023-03-11T18:33:46.629Z,100055.19
2023-03-11T18:36:21.455Z,100069.34
2023-03-11T18:38:49.249Z,100072.00
2023-03-11T18:41:16.681Z,100095.47
2023-03-11T18:43:43.862Z,100084.72
2023-03-11T18:46:16.469Z,100072.31
2023-03-11T18:48:43.541Z,100063.22
2023-03-11T18:51:12.850Z,100082.78
2023-03-11T18:53:42.442Z,100055.63
2023-03-11T18:56:13.860Z,100061.25
2023-03-11T18:58:41.248Z,100062.03
2023-03-11T19:01:15.294Z,100061.28
2023-03-11T19:03:44.210Z,100057.28
2023-03-11T19:06:13.409Z,100041.38
2023-03-11T19:08:40.815Z,100017.94
2023-03-11T19:11:09.581Z,100017.00
2023-03-11T19:13:46.715Z,100012.09
2023-03-11T19:16:17.723Z,100006.31
2023-03-11T19:18:45.637Z,100014.25
2023-03-11T19:21:14.969Z,100000.41
2023-03-11T19:23:42.234Z,100002.66
2023-03-11T19:26:09.850Z,100025.47
2023-03-11T19:28:37.259Z,100015.50
2023-03-11T19:31:05.352Z,100004.47
2023-03-11T19:33:32.784Z,100017.53
2023-03-11T19:36:02.501Z,99980.47
2023-03-11T19:38:31.161Z,99975.03
2023-03-11T19:41:01.559Z,99955.81
2023-03-11T19:43:29.492Z,99971.13
2023-03-11T19:45:57.015Z,99964.00
2023-03-11T19:48:24.407Z,99968.25
2023-03-11T19:50:52.444Z,99967.50
2023-03-11T19:53:21.924Z,99981.47
2023-03-11T19:55:52.623Z,99961.69
2023-03-11T19:58:21.195Z,99957.78
2023-03-11T20:00:48.537Z,99940.09
2023-03-11T20:03:17.248Z,99982.19
2023-03-11T20:05:46.797Z,99960.34
2023-03-11T20:08:17.261Z,99980.69
2023-03-11T20:10:47.246Z,99971.69
2023-03-11T20:13:16.638Z,99966.56
2023-03-11T20:15:44.684Z,99962.28
2023-03-11T20:18:13.452Z,99993.81
2023-03-11T20:20:44.240Z,99988.19
2023-03-11T20:23:13.480Z,99988.50
2023-03-11T20:25:42.192Z,100026.22
2023-03-11T20:28:10.942Z,100032.81
2023-03-11T20:30:40.246Z,100028.78
2023-03-11T20:33:08.396Z,99997.53
2023-03-11T20:35:36.276Z,100012.84
2023-03-11T20:38:04.763Z,100037.84
2023-03-11T20:40:32.461Z,100047.19
2023-03-11T20:43:00.182Z,100017.19
2023-03-11T20:45:27.595Z,100060.06
2023-03-11T20:47:55.841Z,100073.38
2023-03-11T20:50:23.422Z,100081.66
2023-03-11T20:52:51.537Z,100032.78
2023-03-11T20:55:18.937Z,100020.56
2023-03-11T20:57:46.811Z,100046.13
2023-03-11T21:00:14.328Z,100080.16
2023-03-11T21:02:43.476Z,100031.38
2023-03-11T21:05:12.367Z,100057.00
2023-03-11T21:07:40.549Z,100094.91
2023-03-11T21:10:12.772Z,100075.31
2023-03-11T21:12:39.989Z,100096.13
2023-03-11T21:15:09.006Z,100100.44
2023-03-11T21:17:37.389Z,100104.13
2023-03-11T21:20:06.576Z,100113.88
2023-03-11T21:22:34.098Z,100081.63
2023-03-11T21:25:01.174Z,100107.16
2023-03-11T21:27:28.507Z,100120.31
2023-03-11T21:29:56.013Z,100090.19
2023-03-11T21:32:25.001Z,100099.06
2023-03-11T21:34:55.968Z,100095.69
2023-03-11T21:37:23.400Z,100091.91
2023-03-11T21:39:50.612Z,100121.47
2023-03-11T21:42:18.250Z,100100.91
2023-03-11T21:44:45.693Z,100106.06
2023-03-11T21:47:12.813Z,100098.72
2023-03-11T21:49:40.123Z,100089.63
2023-03-11T21:52:07.534Z,100115.38
2023-03-11T21:54:34.733Z,100116.41
2023-03-11T21:57:01.880Z,100108.44
2023-03-11T21:59:30.758Z,100085.25
2023-03-11T22:02:01.540Z,100083.22
2023-03-11T22:04:30.061Z,100082.69
2023-03-11T22:06:57.589Z,100108.63
2023-03-11T22:09:26.122Z,100114.81
2023-03-11T22:11:54.266Z,100107.63
2023-03-11T22:14:21.447Z,100099.56
2023-03-11T22:16:48.910Z,100107.25
2023-03-11T22:19:16.040Z,100104.75
2023-03-11T22:21:43.769Z,100106.16
2023-03-11T22:24:11.144Z,100100.56
2023-03-11T22:26:38.438Z,100091.09
2023-03-11T22:29:08.583Z,100101.25
2023-03-11T22:31:36.056Z,100099.03
2023-03-11T22:34:03.232Z,100099.25
2023-03-11T22:36:30.349Z,100092.41
2023-03-11T22:38:57.440Z,100078.59
2023-03-11T22:41:24.566Z,100105.00
2023-03-11T22:43:51.704Z,100091.19
2023-03-11T22:46:18.852Z,100085.72
2023-03-11T22:48:46.065Z,100087.66
2023-03-11T22:51:13.375Z,100100.91
2023-03-11T22:53:40.512Z,100099.75
2023-03-11T22:56:10.655Z,100089.47
2023-03-11T22:58:38.323Z,100098.16
2023-03-11T23:01:06.388Z,100091.09
2023-03-11T23:03:34.844Z,100109.59
2023-03-11T23:06:06.742Z,100108.44
2023-03-11T23:08:34.621Z,100117.56
2023-03-11T23:11:03.947Z,100120.06
2023-03-11T23:13:32.417Z,100127.94
2023-03-11T23:16:05.332Z,100132.06
2023-03-11T23:18:32.495Z,100137.88
2023-03-11T23:20:59.550Z,100145.53
2023-03-11T23:23:26.918Z,100137.09
2023-03-11T23:25:54.181Z,100138.47
2023-03-11T23:28:21.530Z,100150.59
2023-03-11T23:30:48.623Z,100150.44
2023-03-11T23:33:15.688Z,100142.44
2023-03-11T23:35:43.099Z,100138.69
2023-03-11T23:38:10.577Z,100134.13
2023-03-11T23:40:40.826Z,100140.06
2023-03-11T23:43:08.229Z,100129.78
2023-03-11T23:45:35.564Z,100136.75
2023-03-11T23:48:02.666Z,100135.84
2023-03-11T23:50:29.764Z,100137.63
2023-03-11T23:52:56.931Z,100140.63
2023-03-11T23:55:24.115Z,100134.66
2023-03-11T23:57:51.305Z,100153.84
